Time;durP1;ratioP1;P1;durP2;ratioP2;P2;SDS_P1;SDS_P2;PMS_P1;PMS_P2;Temp;Humidity;BMP_temperature;BMP_pressure;BME280_temperature;BME280_humidity;BME280_pressure;Samples;Min_cycle;Max_cycle;Signal;HPM_P1;HPM_P2
2023/05/21 00:00:52;;;;;;;7.30;4.32;;;;;;;16.24;nan;55445.31;5012366;28;20643;-68
2023/05/21 00:03:18;;;;;;;6.32;4.10;;;;;;;16.08;nan;55696.34;5012383;28;20219;-69
2023/05/21 00:05:46;;;;;;;8.20;4.18;;;;;;;15.85;nan;55160.78;5011085;28;20638;-69
2023/05/21 00:08:12;;;;;;;6.47;4.13;;;;;;;16.23;nan;56218.38;5013198;28;20164;-69
2023/05/21 00:10:38;;;;;;;7.43;3.80;;;;;;;15.96;nan;55539.34;5014665;28;20183;-69
2023/05/21 00:13:03;;;;;;;7.85;4.70;;;;;;;15.95;nan;55618.06;5012073;28;20203;-69
2023/05/21 00:15:28;;;;;;;6.40;3.95;;;;;;;15.93;nan;55623.69;5012318;28;20562;-69
2023/05/21 00:17:54;;;;;;;7.00;4.13;;;;;;;15.89;nan;55867.50;5012033;28;20172;-69
2023/05/21 00:20:19;;;;;;;7.15;4.45;;;;;;;15.97;nan;55771.88;5012175;28;20224;-70
2023/05/21 00:22:45;;;;;;;8.15;4.00;;;;;;;15.95;nan;55929.81;5012137;28;20215;-68
2023/05/21 00:25:11;;;;;;;7.43;4.35;;;;;;;16.16;nan;54700.78;5012478;28;20264;-68
2023/05/21 00:27:36;;;;;;;7.57;4.57;;;;;;;16.10;nan;53928.28;5012434;28;20191;-69
2023/05/21 00:30:03;;;;;;;6.55;4.10;;;;;;;15.98;nan;53147.56;5012450;28;20164;-68
2023/05/21 00:32:29;;;;;;;5.88;4.10;;;;;;;16.12;nan;51382.84;5017198;28;20180;-68
2023/05/21 00:34:54;;;;;;;6.53;4.10;;;;;;;16.04;nan;45530.38;5010730;28;20326;-70
2023/05/21 00:37:20;;;;;;;6.68;3.60;;;;;;;15.90;nan;42637.25;5011874;28;20207;-68
2023/05/21 00:39:46;;;;;;;7.40;4.65;;;;;;;16.09;nan;42360.66;5011988;28;20224;-68
2023/05/21 00:42:11;;;;;;;7.70;4.43;;;;;;;16.15;nan;48883.72;5011789;28;20214;-69
2023/05/21 00:44:37;;;;;;;10.55;4.55;;;;;;;16.13;nan;50895.59;5012213;28;20226;-69
2023/05/21 00:47:03;;;;;;;8.10;4.32;;;;;;;15.99;nan;48530.13;5012470;28;20168;-69
2023/05/21 00:49:30;;;;;;;10.15;4.43;;;;;;;15.64;nan;44486.38;5011605;28;20195;-69
2023/05/21 00:51:56;;;;;;;9.30;4.63;;;;;;;15.69;nan;43560.53;5010589;28;20655;-69
2023/05/21 00:54:23;;;;;;;9.30;4.75;;;;;;;15.67;nan;41108.09;5011837;28;20200;-69
2023/05/21 00:56:50;;;;;;;9.00;4.90;;;;;;;15.97;nan;44188.00;5011987;28;20187;-69
2023/05/21 00:59:15;;;;;;;10.57;5.38;;;;;;;15.75;nan;40666.03;5011982;28;20168;-68
2023/05/21 01:01:44;;;;;;;6.60;4.22;;;;;;;15.61;nan;37467.59;5011964;28;20180;-69
2023/05/21 01:04:10;;;;;;;8.05;4.55;;;;;;;15.77;nan;31479.50;5012001;28;20164;-68
2023/05/21 01:06:36;;;;;;;8.25;5.00;;;;;;;15.57;nan;26896.75;5011924;28;20183;-69
2023/05/21 01:09:05;;;;;;;11.50;5.45;;;;;;;15.46;nan;24608.41;5013881;28;20180;-69
2023/05/21 01:11:38;;;;;;;6.93;4.70;;;;;;;15.73;nan;22666.00;5012177;28;20184;-68
2023/05/21 01:14:08;;;;;;;7.25;4.60;;;;;;;15.62;nan;18752.81;5017665;28;20195;-67
2023/05/21 01:16:36;;;;;;;7.28;4.43;;;;;;;15.82;nan;22670.63;5015313;28;20207;-69
2023/05/21 01:19:02;;;;;;;9.13;5.05;;;;;;;15.69;nan;20709.34;5014438;28;20686;-68
2023/05/21 01:21:29;;;;;;;7.20;4.90;;;;;;;15.77;nan;21364.50;5015355;28;20190;-68
2023/05/21 01:23:55;;;;;;;11.15;5.03;;;;;;;15.72;nan;19733.75;5015345;28;20180;-69
2023/05/21 01:26:20;;;;;;;8.57;5.25;;;;;;;15.58;nan;21355.88;5015455;28;20176;-68
2023/05/21 01:28:46;;;;;;;9.90;4.97;;;;;;;15.66;nan;20382.31;5015089;28;20183;-69
2023/05/21 01:31:33;;;;;;;7.28;4.85;;;;;;;15.70;nan;20058.69;5015037;28;20631;-69
2023/05/21 01:34:02;;;;;;;8.38;5.20;;;;;;;15.83;nan;22019.28;5015189;28;20199;-68
2023/05/21 01:36:31;;;;;;;6.93;4.53;;;;;;;15.61;nan;25593.94;5015203;28;20266;-68
2023/05/21 01:39:13;;;;;;;7.45;4.53;;;;;;;15.63;nan;24616.75;5015494;28;20164;-68
2023/05/21 01:41:43;;;;;;;7.72;4.55;;;;;;;15.78;nan;25277.16;5014853;28;20259;-69
2023/05/21 01:44:10;;;;;;;8.90;4.65;;;;;;;15.49;nan;25587.75;5020125;28;20187;-68
2023/05/21 01:46:37;;;;;;;6.22;4.28;;;;;;;15.54;nan;24938.09;5018431;28;20238;-69
2023/05/21 01:49:05;;;;;;;8.25;5.43;;;;;;;15.58;nan;24288.41;5014464;28;20172;-68
2023/05/21 01:51:31;;;;;;;7.68;4.53;;;;;;;15.40;nan;18093.06;5014647;28;20263;-70
2023/05/21 01:53:56;;;;;;;8.98;4.97;;;;;;;15.43;nan;14842.94;5014160;28;20203;-68
2023/05/21 01:56:24;;;;;;;7.38;4.78;;;;;;;15.80;nan;13880.91;5014337;28;20173;-68
2023/05/21 01:58:50;;;;;;;11.10;4.95;;;;;;;15.71;nan;12902.69;5014548;28;20164;-67
2023/05/21 02:01:15;;;;;;;7.28;4.70;;;;;;;15.72;nan;10953.97;5014674;28;20514;-69
2023/05/21 02:03:41;;;;;;;8.00;5.05;;;;;;;15.73;nan;12903.50;5014634;28;20702;-68
2023/05/21 02:06:06;;;;;;;12.52;5.45;;;;;;;15.78;nan;20713.69;5014417;28;20642;-69
2023/05/21 02:08:32;;;;;;;11.02;5.80;;;;;;;15.77;nan;24624.06;5014358;28;20176;-68
2023/05/21 02:10:57;;;;;;;9.02;5.60;;;;;;;15.73;nan;21037.13;5014090;28;20604;-67
2023/05/21 02:13:23;;;;;;;9.57;5.82;;;;;;;15.66;nan;17453.06;5014178;28;20204;-68
2023/05/21 02:15:53;;;;;;;8.45;5.53;;;;;;;15.75;nan;14529.34;5015475;28;20179;-68
2023/05/21 02:18:20;;;;;;;11.43;5.80;;;;;;;15.45;nan;13543.97;5014211;28;20172;-68
2023/05/21 02:20:46;;;;;;;8.60;5.55;;;;;;;15.51;nan;12246.53;5014066;28;20228;-69
2023/05/21 02:23:11;;;;;;;10.20;5.80;;;;;;;15.57;nan;11274.22;5013803;28;20305;-69
2023/05/21 02:25:37;;;;;;;8.82;5.13;;;;;;;15.55;nan;10948.94;5013134;28;20545;-69
2023/05/21 02:28:02;;;;;;;8.55;5.63;;;;;;;15.63;nan;16150.75;5012544;28;20634;-69
2023/05/21 02:30:28;;;;;;;13.02;6.28;;;;;;;15.71;nan;25925.50;5012796;28;20199;-69
2023/05/21 02:32:54;;;;;;;10.75;5.85;;;;;;;15.66;nan;21685.38;5012998;28;20199;-69
2023/05/21 02:35:20;;;;;;;7.95;5.20;;;;;;;15.79;nan;25603.88;5013110;28;20188;-69
2023/05/21 02:37:45;;;;;;;11.07;5.43;;;;;;;15.53;nan;29831.69;5014030;28;20175;-69
2023/05/21 02:40:11;;;;;;;9.43;5.45;;;;;;;15.77;nan;35403.22;5013667;28;20210;-69
2023/05/21 02:42:38;;;;;;;7.28;5.40;;;;;;;15.52;nan;27546.41;5014039;28;20600;-69
2023/05/21 02:45:11;;;;;;;10.02;5.50;;;;;;;15.71;nan;34745.16;5012537;28;20655;-69
2023/05/21 02:47:37;;;;;;;7.72;4.68;;;;;;;15.79;nan;45731.75;5012430;28;20180;-69
2023/05/21 02:50:06;;;;;;;7.30;4.50;;;;;;;15.59;nan;53592.75;5012432;28;20179;-69
2023/05/21 02:52:32;;;;;;;7.20;5.00;;;;;;;15.90;nan;56089.75;5013709;28;20199;-68
2023/05/21 02:54:57;;;;;;;8.15;4.15;;;;;;;15.62;nan;54564.50;5012462;28;20234;-68
2023/05/21 02:57:23;;;;;;;8.15;4.50;;;;;;;16.00;nan;55332.56;5015571;28;20184;-69
2023/05/21 02:59:48;;;;;;;7.50;4.80;;;;;;;15.99;nan;56695.00;5013894;28;20198;-68
2023/05/21 03:02:13;;;;;;;6.57;4.38;;;;;;;15.80;nan;55963.06;5013795;28;20172;-69
2023/05/21 03:04:44;;;;;;;8.88;4.72;;;;;;;15.94;nan;54858.84;5012320;28;20655;-69
2023/05/21 03:07:13;;;;;;;9.45;5.35;;;;;;;15.87;nan;55052.75;5013458;28;20175;-68
2023/05/21 03:09:40;;;;;;;7.90;4.65;;;;;;;15.94;nan;54346.66;5013753;28;20253;-69
2023/05/21 03:12:06;;;;;;;7.13;4.53;;;;;;;15.90;nan;53834.09;5013398;28;20172;-69
2023/05/21 03:14:32;;;;;;;8.88;5.07;;;;;;;15.54;nan;54348.22;5013698;28;20765;-68
2023/05/21 03:16:58;;;;;;;7.47;4.68;;;;;;;15.80;nan;56348.84;5013829;28;20251;-68
2023/05/21 03:19:23;;;;;;;8.82;4.68;;;;;;;15.82;nan;55677.09;5014787;28;20247;-68
2023/05/21 03:21:49;;;;;;;6.97;4.22;;;;;;;15.79;nan;56147.72;5015137;28;20798;-69
2023/05/21 03:24:15;;;;;;;8.20;4.10;;;;;;;15.91;nan;56276.00;5013135;28;20187;-69
2023/05/21 03:26:40;;;;;;;10.05;3.88;;;;;;;15.90;nan;56444.22;5012521;28;20172;-69
2023/05/21 03:29:05;;;;;;;6.90;3.72;;;;;;;15.98;nan;56928.13;5013579;28;20671;-70
2023/05/21 03:31:31;;;;;;;9.55;4.40;;;;;;;15.61;nan;56036.38;5013929;28;20192;-70
2023/05/21 03:33:56;;;;;;;7.50;4.18;;;;;;;15.93;nan;56382.53;5022261;28;20199;-69
2023/05/21 03:36:22;;;;;;;7.13;4.28;;;;;;;15.60;nan;55248.69;5011308;28;20195;-69
2023/05/21 03:38:47;;;;;;;8.68;5.07;;;;;;;16.05;nan;56173.81;5012913;28;20187;-69
2023/05/21 03:41:13;;;;;;;7.38;4.60;;;;;;;16.01;nan;57394.50;5013196;28;20176;-68
2023/05/21 03:43:38;;;;;;;6.30;4.22;;;;;;;16.16;nan;57590.72;5012941;28;20176;-70
2023/05/21 03:46:04;;;;;;;6.93;4.35;;;;;;;16.08;nan;57685.13;5012877;28;20187;-69
2023/05/21 03:48:29;;;;;;;5.90;3.78;;;;;;;16.21;nan;58350.53;5012744;28;20562;-68
2023/05/21 03:50:55;;;;;;;8.25;4.20;;;;;;;16.07;nan;58719.59;5011358;28;20182;-70
2023/05/21 03:53:21;;;;;;;6.50;3.78;;;;;;;16.07;nan;59327.34;5012924;28;20231;-69
2023/05/21 03:55:53;;;;;;;6.53;3.88;;;;;;;16.41;nan;59554.81;5012695;28;20180;-70
2023/05/21 03:58:21;;;;;;;6.97;4.15;;;;;;;16.20;nan;58962.94;5012781;28;20196;-69
2023/05/21 04:00:47;;;;;;;6.68;4.32;;;;;;;16.41;nan;59448.59;5012564;28;20608;-70
2023/05/21 04:03:13;;;;;;;6.07;3.83;;;;;;;16.30;nan;59604.53;5012333;28;20183;-70
2023/05/21 04:05:39;;;;;;;7.47;4.13;;;;;;;15.81;nan;57917.22;5012637;28;20601;-69
2023/05/21 04:08:05;;;;;;;7.47;4.22;;;;;;;16.09;nan;58255.69;5014589;28;20275;-68
2023/05/21 04:10:30;;;;;;;6.80;4.30;;;;;;;16.02;nan;58399.50;5012090;28;20655;-69
2023/05/21 04:12:56;;;;;;;6.18;3.95;;;;;;;16.11;nan;58685.31;5012519;28;20204;-68
2023/05/21 04:15:23;;;;;;;9.02;4.28;;;;;;;16.29;nan;59343.19;5010763;28;20262;-69
2023/05/21 04:17:49;;;;;;;6.18;3.78;;;;;;;15.94;nan;58081.97;5012477;28;20251;-69
2023/05/21 04:20:15;;;;;;;7.03;4.47;;;;;;;16.29;nan;58263.88;5012768;28;20309;-69
2023/05/21 04:22:41;;;;;;;5.75;3.83;;;;;;;16.52;nan;59061.75;5013310;28;20176;-68
2023/05/21 04:25:07;;;;;;;6.75;4.47;;;;;;;16.27;nan;59478.13;5012500;28;20175;-69
2023/05/21 04:27:33;;;;;;;6.43;4.03;;;;;;;16.66;nan;59801.50;5012183;28;20175;-69
2023/05/21 04:29:58;;;;;;;9.68;4.00;;;;;;;16.57;nan;60433.47;5012244;28;20259;-69
2023/05/21 04:32:24;;;;;;;5.50;3.80;;;;;;;16.71;nan;60443.97;5012355;28;20673;-69
2023/05/21 04:34:49;;;;;;;6.38;3.60;;;;;;;17.07;nan;60508.81;5012070;28;20203;-70
2023/05/21 04:37:18;;;;;;;5.95;3.67;;;;;;;17.06;nan;60567.06;5010956;28;20176;-69
2023/05/21 04:39:44;;;;;;;6.63;3.88;;;;;;;16.98;nan;60627.78;5012538;28;20179;-70
2023/05/21 04:42:09;;;;;;;6.10;3.83;;;;;;;16.98;nan;60669.63;5012295;28;20168;-70
2023/05/21 04:44:37;;;;;;;6.93;3.85;;;;;;;17.32;nan;60673.56;5017168;28;20676;-70
2023/05/21 04:47:03;;;;;;;7.82;3.88;;;;;;;17.44;nan;60774.22;5012441;28;20184;-70
2023/05/21 04:49:28;;;;;;;6.28;3.88;;;;;;;17.14;nan;60797.94;5014464;28;20223;-66
2023/05/21 04:51:54;;;;;;;5.75;3.75;;;;;;;17.22;nan;60835.31;5021139;28;20213;-66
2023/05/21 04:54:19;;;;;;;8.10;3.90;;;;;;;17.41;nan;60939.25;5022919;28;20206;-66
2023/05/21 04:56:46;;;;;;;6.97;3.92;;;;;;;17.56;nan;60958.69;5016672;28;20180;-67
2023/05/21 04:59:11;;;;;;;6.38;3.95;;;;;;;17.58;nan;60986.78;5020191;28;20267;-67
2023/05/21 05:01:37;;;;;;;5.95;4.10;;;;;;;17.56;nan;60924.56;5018602;28;20272;-66
2023/05/21 05:04:03;;;;;;;7.13;3.78;;;;;;;17.60;nan;61089.78;5021868;28;20187;-67
2023/05/21 05:06:28;;;;;;;6.88;3.40;;;;;;;17.50;nan;61018.53;5020461;28;20187;-67
2023/05/21 05:08:54;;;;;;;7.80;3.60;;;;;;;17.36;nan;61093.75;5024786;28;20194;-67
2023/05/21 05:11:19;;;;;;;8.02;3.92;;;;;;;17.58;nan;60937.13;5016830;28;20180;-67
2023/05/21 05:13:45;;;;;;;5.80;3.45;;;;;;;17.40;nan;61007.84;5026074;28;20235;-65
2023/05/21 05:16:11;;;;;;;5.20;3.63;;;;;;;17.50;nan;61046.94;5026129;28;20680;-67
2023/05/21 05:18:37;;;;;;;7.72;4.40;;;;;;;17.52;nan;61011.03;5020664;28;20194;-66
2023/05/21 05:21:02;;;;;;;7.55;4.53;;;;;;;17.41;nan;61045.13;5019074;28;20219;-66
2023/05/21 05:23:28;;;;;;;5.72;3.50;;;;;;;17.70;nan;61089.59;5020263;28;20191;-65
2023/05/21 05:25:53;;;;;;;6.35;3.95;;;;;;;17.42;nan;61066.34;5019333;28;20639;-67
2023/05/21 05:28:18;;;;;;;7.80;4.97;;;;;;;17.71;nan;61284.50;5016854;28;20176;-65
2023/05/21 05:30:44;;;;;;;6.97;4.00;;;;;;;17.46;nan;61112.75;5017003;28;20180;-65
2023/05/21 05:33:10;;;;;;;5.50;3.72;;;;;;;17.90;nan;61208.28;5016697;28;20293;-65
2023/05/21 05:35:36;;;;;;;6.18;4.00;;;;;;;17.86;nan;61190.28;5019152;28;20175;-65
2023/05/21 05:38:02;;;;;;;6.75;4.10;;;;;;;17.65;nan;61157.41;5017192;28;20184;-66
2023/05/21 05:40:27;;;;;;;5.78;3.90;;;;;;;17.78;nan;61125.00;5021757;28;20184;-65
2023/05/21 05:42:53;;;;;;;5.82;4.03;;;;;;;18.06;nan;61195.31;5015746;28;20183;-67
2023/05/21 05:45:21;;;;;;;6.55;4.15;;;;;;;17.93;nan;61379.13;5018777;28;20179;-66
2023/05/21 05:47:47;;;;;;;7.03;3.65;;;;;;;17.94;nan;61153.34;5017092;28;20205;-66
2023/05/21 05:50:12;;;;;;;6.85;3.97;;;;;;;17.58;nan;61079.19;5018937;28;20676;-67
2023/05/21 05:52:37;;;;;;;7.22;4.25;;;;;;;17.61;nan;60884.28;5016977;28;20204;-67
2023/05/21 05:55:03;;;;;;;6.65;4.18;;;;;;;17.17;nan;60786.38;5014804;28;20733;-65
2023/05/21 05:57:29;;;;;;;9.60;4.40;;;;;;;17.32;nan;60650.31;5021498;28;20186;-66
2023/05/21 05:59:55;;;;;;;6.63;4.10;;;;;;;17.47;nan;60537.44;5019335;28;20179;-66
2023/05/21 06:02:20;;;;;;;7.25;4.22;;;;;;;17.51;nan;60261.00;5020263;28;20188;-66
2023/05/21 06:04:46;;;;;;;9.27;4.65;;;;;;;17.41;nan;60497.16;5021575;28;20215;-66
2023/05/21 06:07:11;;;;;;;8.43;4.43;;;;;;;17.69;nan;60540.78;5018586;28;20246;-66
2023/05/21 06:09:37;;;;;;;7.25;4.47;;;;;;;17.72;nan;60848.97;5018552;28;20188;-66
2023/05/21 06:12:04;;;;;;;6.97;4.45;;;;;;;17.94;nan;60909.84;5013987;28;20180;-66
2023/05/21 06:14:30;;;;;;;7.93;4.35;;;;;;;18.08;nan;61086.38;5016437;28;20216;-65
2023/05/21 06:16:55;;;;;;;8.02;4.78;;;;;;;18.17;nan;60982.22;5020231;28;20191;-66
2023/05/21 06:19:21;;;;;;;6.78;4.13;;;;;;;18.40;nan;61004.91;5017337;28;20346;-65
2023/05/21 06:21:46;;;;;;;5.95;3.97;;;;;;;18.15;nan;61152.63;5013985;28;20172;-66
2023/05/21 06:24:12;;;;;;;8.38;4.72;;;;;;;18.42;nan;61080.13;5021036;28;20682;-66
2023/05/21 06:26:37;;;;;;;8.88;4.20;;;;;;;18.17;nan;61023.56;5019330;28;20681;-65
2023/05/21 06:29:03;;;;;;;6.13;4.15;;;;;;;18.39;nan;61125.34;5018923;28;20180;-66
2023/05/21 06:31:31;;;;;;;8.30;3.95;;;;;;;18.60;nan;61153.59;5016236;28;20203;-65
2023/05/21 06:33:57;;;;;;;6.63;4.07;;;;;;;18.68;nan;61222.16;5017863;28;20294;-66
2023/05/21 06:36:24;;;;;;;6.85;4.15;;;;;;;18.33;nan;61152.75;5013728;28;20211;-65
2023/05/21 06:38:50;;;;;;;6.05;3.70;;;;;;;18.59;nan;61235.28;5015987;28;20689;-66
2023/05/21 06:41:15;;;;;;;6.82;3.72;;;;;;;18.70;nan;61252.84;5018834;28;20216;-65
2023/05/21 06:43:41;;;;;;;7.20;4.40;;;;;;;18.76;nan;61332.66;5021120;28;20285;-65
2023/05/21 06:46:06;;;;;;;6.00;3.75;;;;;;;18.85;nan;61337.09;5020500;28;20196;-66
2023/05/21 06:48:32;;;;;;;6.88;4.00;;;;;;;18.98;nan;61388.00;5015733;28;20214;-66
2023/05/21 06:50:57;;;;;;;6.40;4.18;;;;;;;19.08;nan;61424.63;5013595;28;20187;-65
2023/05/21 06:53:23;;;;;;;8.60;4.80;;;;;;;19.14;nan;61432.00;5013473;28;20545;-66
2023/05/21 06:55:52;;;;;;;7.80;4.63;;;;;;;19.01;nan;61458.72;5013295;28;20184;-66
2023/05/21 06:58:18;;;;;;;6.28;3.80;;;;;;;19.13;nan;61466.56;5015328;28;20767;-68
2023/05/21 07:00:43;;;;;;;6.43;4.07;;;;;;;19.28;nan;61465.94;5013585;28;20188;-66
2023/05/21 07:03:08;;;;;;;6.97;4.65;;;;;;;19.17;nan;61499.56;5018103;28;20180;-66
2023/05/21 07:05:34;;;;;;;5.95;4.05;;;;;;;19.38;nan;61505.19;5016116;28;20266;-65
2023/05/21 07:07:59;;;;;;;7.82;3.88;;;;;;;19.47;nan;61517.44;5021548;28;20212;-66
2023/05/21 07:10:25;;;;;;;8.40;4.28;;;;;;;19.64;nan;61528.91;5015284;28;20552;-68
2023/05/21 07:12:50;;;;;;;6.82;4.25;;;;;;;19.60;nan;61524.38;5012772;28;20176;-67
2023/05/21 07:15:16;;;;;;;7.97;4.75;;;;;;;19.63;nan;61561.44;5012721;28;20196;-68
2023/05/21 07:17:41;;;;;;;7.95;4.05;;;;;;;19.92;nan;61586.53;5013280;28;20198;-67
2023/05/21 07:20:08;;;;;;;7.35;4.47;;;;;;;19.98;nan;61593.31;5018628;28;20255;-66
2023/05/21 07:22:34;;;;;;;8.50;4.57;;;;;;;19.98;nan;61645.19;5014591;28;20215;-66
2023/05/21 07:24:59;;;;;;;7.90;4.40;;;;;;;20.13;nan;61677.75;5014208;28;20636;-67
2023/05/21 07:27:25;;;;;;;6.28;3.92;;;;;;;20.44;nan;61738.31;5016063;28;20230;-67
2023/05/21 07:29:50;;;;;;;8.45;3.92;;;;;;;20.54;nan;61715.91;5012577;28;20175;-67
2023/05/21 07:32:16;;;;;;;8.95;4.43;;;;;;;20.57;nan;61760.88;5012416;28;20156;-68
2023/05/21 07:34:41;;;;;;;7.30;3.90;;;;;;;20.49;nan;61717.47;5014234;28;20682;-67
2023/05/21 07:37:07;;;;;;;6.20;3.80;;;;;;;20.99;nan;61776.78;5014925;28;20188;-67
2023/05/21 07:39:32;;;;;;;6.88;4.03;;;;;;;20.99;nan;62012.66;5019781;28;20642;-67
2023/05/21 07:41:57;;;;;;;8.00;4.20;;;;;;;21.10;nan;61840.69;5014562;28;20183;-65
2023/05/21 07:44:23;;;;;;;5.43;3.40;;;;;;;21.34;nan;61891.38;5017320;28;20183;-67
2023/05/21 07:46:48;;;;;;;6.57;4.07;;;;;;;21.79;nan;61910.19;5019063;28;20271;-68
2023/05/21 07:49:15;;;;;;;5.45;3.40;;;;;;;22.16;nan;62144.31;5012815;28;20330;-66
2023/05/21 07:51:44;;;;;;;6.85;3.65;;;;;;;22.56;nan;62041.50;5014197;28;20501;-67
2023/05/21 07:54:09;;;;;;;5.65;3.38;;;;;;;22.73;nan;62050.47;5012046;28;20200;-67
2023/05/21 07:56:35;;;;;;;6.30;3.08;;;;;;;22.72;nan;62051.91;5014716;28;20242;-66
2023/05/21 07:59:01;;;;;;;5.97;3.42;;;;;;;22.92;nan;62121.03;5018412;28;20270;-67
2023/05/21 08:01:28;;;;;;;9.57;3.47;;;;;;;22.88;nan;62083.19;5022334;28;20175;-65
2023/05/21 08:03:54;;;;;;;5.18;3.50;;;;;;;22.95;nan;62134.31;5003763;28;20658;-66
2023/05/21 08:06:21;;;;;;;7.53;3.97;;;;;;;23.25;nan;62171.13;5016207;28;20214;-68
2023/05/21 08:08:46;;;;;;;5.35;3.55;;;;;;;23.54;nan;62180.16;5012762;28;20180;-67
2023/05/21 08:11:12;;;;;;;11.13;3.50;;;;;;;23.38;nan;62178.13;5011940;28;20245;-67
2023/05/21 08:13:37;;;;;;;5.13;3.28;;;;;;;23.68;nan;62217.00;5011743;28;20199;-66
2023/05/21 08:16:04;;;;;;;5.35;3.08;;;;;;;24.00;nan;62226.84;5010486;28;20659;-67
2023/05/21 08:18:30;;;;;;;5.80;3.28;;;;;;;24.10;nan;62290.44;5012357;28;20708;-69
2023/05/21 08:20:55;;;;;;;5.90;3.10;;;;;;;23.85;nan;62241.03;5014213;28;20346;-66
2023/05/21 08:23:21;;;;;;;5.45;3.40;;;;;;;24.19;nan;62303.38;5010528;28;20259;-69
2023/05/21 08:25:46;;;;;;;4.80;3.47;;;;;;;24.72;nan;62344.47;5017072;28;20180;-67
2023/05/21 08:28:12;;;;;;;8.35;3.67;;;;;;;24.73;nan;62340.38;5011988;28;20189;-65
2023/05/21 08:30:37;;;;;;;5.13;3.30;;;;;;;25.08;nan;62608.50;5012460;28;20172;-65
2023/05/21 08:33:03;;;;;;;4.35;3.20;;;;;;;24.94;nan;62359.72;5012399;28;20218;-66
2023/05/21 08:35:28;;;;;;;5.13;2.80;;;;;;;25.01;nan;62435.72;5012198;28;20254;-66
2023/05/21 08:37:53;;;;;;;6.03;3.35;;;;;;;25.44;nan;62458.16;5012065;28;20704;-66
2023/05/21 08:40:19;;;;;;;5.47;2.90;;;;;;;25.03;nan;62440.03;5014114;28;20658;-66
2023/05/21 08:42:46;;;;;;;5.00;2.90;;;;;;;25.07;nan;62402.78;5011959;28;20172;-66
2023/05/21 08:45:13;;;;;;;4.35;2.95;;;;;;;25.41;nan;62462.56;5011688;28;20180;-64
2023/05/21 08:47:43;;;;;;;8.48;3.38;;;;;;;25.23;nan;62478.03;5011934;28;20643;-66
2023/05/21 08:50:13;;;;;;;4.20;2.65;;;;;;;25.58;nan;62520.72;5011537;28;20176;-66
2023/05/21 08:52:39;;;;;;;4.60;3.10;;;;;;;25.25;nan;62381.47;5011276;28;20172;-67
2023/05/21 08:55:06;;;;;;;6.93;3.90;;;;;;;25.14;nan;62632.53;5014646;28;20301;-65
2023/05/21 08:57:31;;;;;;;5.30;3.00;;;;;;;25.25;nan;62418.09;5012968;28;20211;-65
2023/05/21 08:59:58;;;;;;;4.53;3.03;;;;;;;25.15;nan;62400.88;5010982;28;20267;-65
2023/05/21 09:02:23;;;;;;;6.47;2.90;;;;;;;24.78;nan;62380.09;5011092;28;20195;-65
2023/05/21 09:04:55;;;;;;;5.35;2.95;;;;;;;25.23;nan;62428.91;5011229;28;20176;-66
2023/05/21 09:07:23;;;;;;;4.68;2.92;;;;;;;25.39;nan;62462.91;5012321;28;20211;-68
2023/05/21 09:10:04;;;;;;;4.97;2.80;;;;;;;25.58;nan;62478.28;5016908;28;20192;-65
2023/05/21 09:12:30;;;;;;;5.45;2.92;;;;;;;25.59;nan;62466.91;5011842;28;20176;-67
2023/05/21 09:14:57;;;;;;;4.72;2.90;;;;;;;26.01;nan;62496.03;5011778;28;20206;-66
2023/05/21 09:17:23;;;;;;;5.35;3.10;;;;;;;26.15;nan;62548.16;5011679;28;20215;-65
2023/05/21 09:20:13;;;;;;;5.65;3.08;;;;;;;26.53;nan;62622.56;5011825;28;20224;-65
2023/05/21 09:22:48;;;;;;;4.38;2.83;;;;;;;26.32;nan;62615.38;5011643;28;20171;-65
2023/05/21 09:25:19;;;;;;;6.97;3.00;;;;;;;26.42;nan;62602.09;5014097;28;20194;-65
2023/05/21 09:27:44;;;;;;;4.18;2.70;;;;;;;26.30;nan;62563.31;5011629;28;20180;-67
2023/05/21 09:30:11;;;;;;;4.85;2.53;;;;;;;25.84;nan;62518.50;5011713;28;20180;-66
2023/05/21 09:32:40;;;;;;;4.65;2.90;;;;;;;24.77;nan;62368.47;5011598;28;20173;-65
2023/05/21 09:35:13;;;;;;;4.35;2.67;;;;;;;23.92;nan;62264.69;5025050;28;20202;-66
2023/05/21 09:37:42;;;;;;;5.05;2.92;;;;;;;23.90;nan;62249.38;5015001;28;20176;-65
2023/05/21 09:40:28;;;;;;;4.15;2.67;;;;;;;24.06;nan;62259.78;5020174;28;20218;-66
2023/05/21 09:42:54;;;;;;;6.38;3.10;;;;;;;24.01;nan;62231.16;5020167;28;20192;-66
2023/05/21 09:45:21;;;;;;;4.28;2.55;;;;;;;24.24;nan;62468.41;5020593;28;20183;-66
2023/05/21 09:47:48;;;;;;;4.10;2.72;;;;;;;23.96;nan;62264.03;5023358;28;20282;-67
2023/05/21 09:50:18;;;;;;;4.20;2.97;;;;;;;24.00;nan;62221.63;5018888;28;20219;-66
2023/05/21 09:52:44;;;;;;;5.05;2.53;;;;;;;24.12;nan;62284.91;5015881;28;20176;-65
2023/05/21 09:55:11;;;;;;;3.60;2.80;;;;;;;24.53;nan;62329.13;5020849;28;20207;-65
2023/05/21 09:57:46;;;;;;;5.28;2.85;;;;;;;24.33;nan;62358.53;5017243;28;20306;-66
2023/05/21 10:00:27;;;;;;;4.50;3.03;;;;;;;24.40;nan;62340.41;5014565;28;20192;-65
2023/05/21 10:02:59;;;;;;;4.60;3.00;;;;;;;24.68;nan;62379.69;5014860;28;20663;-65
2023/05/21 10:05:29;;;;;;;4.85;2.60;;;;;;;24.57;nan;62333.13;5014890;28;20176;-65
2023/05/21 10:08:01;;;;;;;5.85;2.67;;;;;;;24.44;nan;62362.69;5015660;28;20176;-66
2023/05/21 10:10:27;;;;;;;4.70;2.83;;;;;;;24.36;nan;62252.25;5012326;28;20281;-67
2023/05/21 10:12:57;;;;;;;4.57;2.75;;;;;;;23.74;nan;62250.50;5022054;28;20180;-65
2023/05/21 10:15:24;;;;;;;6.40;3.08;;;;;;;23.93;nan;62237.13;5019627;28;20263;-66
2023/05/21 10:17:51;;;;;;;5.55;3.08;;;;;;;23.78;nan;62278.56;5021934;28;20190;-66
2023/05/21 10:20:17;;;;;;;4.60;3.03;;;;;;;23.61;nan;62204.38;5021024;28;20302;-67
2023/05/21 10:22:43;;;;;;;4.93;2.67;;;;;;;23.29;nan;62163.22;5014302;28;20278;-66
2023/05/21 10:25:09;;;;;;;5.00;3.28;;;;;;;23.25;nan;62199.81;5013940;28;20595;-68
2023/05/21 10:27:36;;;;;;;4.82;2.90;;;;;;;23.45;nan;62209.59;5014562;28;20248;-66
2023/05/21 10:30:03;;;;;;;5.50;2.83;;;;;;;23.56;nan;62180.41;5016331;28;20532;-66
2023/05/21 10:32:30;;;;;;;4.88;2.85;;;;;;;23.31;nan;62175.34;5018264;28;20635;-65
2023/05/21 10:34:56;;;;;;;5.40;3.00;;;;;;;23.41;nan;62215.44;5016382;28;20240;-66
2023/05/21 10:37:23;;;;;;;5.75;2.97;;;;;;;23.38;nan;62219.84;5013978;28;20208;-66
2023/05/21 10:39:49;;;;;;;4.38;3.03;;;;;;;23.92;nan;62267.28;5013644;28;20643;-67
2023/05/21 10:42:30;;;;;;;4.70;3.00;;;;;;;24.19;nan;62269.41;5014400;28;20271;-66
2023/05/21 10:45:18;;;;;;;5.05;2.85;;;;;;;24.41;nan;62331.13;5019303;28;20183;-66
2023/05/21 10:48:09;;;;;;;5.22;3.05;;;;;;;24.57;nan;62346.19;5017494;28;20188;-66
2023/05/21 10:51:03;;;;;;;4.65;3.13;;;;;;;24.99;nan;62432.84;5015955;28;20184;-66
2023/05/21 10:53:47;;;;;;;6.05;3.40;;;;;;;25.32;nan;62431.34;4998233;28;20219;-66
2023/05/21 10:56:23;;;;;;;8.02;3.67;;;;;;;25.38;nan;62463.81;5017814;28;20190;-65
2023/05/21 10:59:14;;;;;;;6.53;3.35;;;;;;;25.53;nan;62494.03;5014717;28;20184;-66
2023/05/21 11:01:40;;;;;;;8.70;4.00;;;;;;;25.35;nan;62418.50;5010820;28;20184;-65
2023/05/21 11:04:06;;;;;;;7.10;3.47;;;;;;;25.15;nan;62455.81;5013354;28;20265;-65
2023/05/21 11:06:31;;;;;;;6.78;3.65;;;;;;;24.98;nan;62453.19;5013178;28;20224;-67
2023/05/21 11:09:13;;;;;;;7.50;3.40;;;;;;;24.92;nan;62390.88;5013808;28;20322;-66
2023/05/21 11:11:42;;;;;;;5.32;3.00;;;;;;;24.68;nan;62366.03;5009977;28;20196;-65
2023/05/21 11:14:37;;;;;;;5.05;2.78;;;;;;;25.14;nan;62418.63;5014501;28;20196;-65
2023/05/21 11:17:14;;;;;;;3.80;2.78;;;;;;;24.85;nan;62348.84;5020685;28;20748;-66
2023/05/21 11:19:46;;;;;;;6.25;2.83;;;;;;;24.78;nan;62372.25;5015507;28;20286;-65
2023/05/21 11:22:22;;;;;;;4.13;2.80;;;;;;;24.50;nan;62325.72;5017062;28;20180;-66
2023/05/21 11:24:48;;;;;;;4.30;2.50;;;;;;;24.00;nan;62357.38;5018034;28;20244;-66
2023/05/21 11:27:30;;;;;;;6.40;3.10;;;;;;;23.85;nan;62254.09;5015249;28;20187;-65
2023/05/21 11:29:56;;;;;;;5.93;3.17;;;;;;;23.56;nan;62172.56;5013340;28;20194;-65
2023/05/21 11:32:23;;;;;;;3.67;2.58;;;;;;;23.58;nan;62399.22;5016434;28;20180;-67
2023/05/21 11:34:49;;;;;;;4.55;2.80;;;;;;;23.51;nan;62234.69;5019821;28;20202;-68
2023/05/21 11:37:17;;;;;;;4.10;2.95;;;;;;;23.55;nan;62181.88;5014950;28;20597;-66
2023/05/21 11:39:46;;;;;;;5.00;2.90;;;;;;;23.56;nan;62209.09;5018085;28;20192;-67
2023/05/21 11:42:12;;;;;;;6.85;3.25;;;;;;;23.75;nan;62215.13;5012749;28;20183;-65
2023/05/21 11:44:41;;;;;;;4.20;2.75;;;;;;;24.04;nan;62234.00;5018384;28;20183;-66
2023/05/21 11:47:11;;;;;;;4.90;2.85;;;;;;;23.78;nan;62244.63;5007195;28;20180;-67
2023/05/21 11:49:37;;;;;;;4.30;2.85;;;;;;;23.93;nan;62271.06;5005111;28;20183;-67